sensor_id;sensor_type;location;lat;lon;timestamp;pressure;altitude;pressure_sealevel;temperature;humidity
47716;BME280;33476;50.984;3.538;2023-04-24T00:00:01;100262.88;;;12.77;68.31
47716;BME280;33476;50.984;3.538;2023-04-24T00:02:30;100254.81;;;12.80;68.30
47716;BME280;33476;50.984;3.538;2023-04-24T00:04:56;100260.88;;;12.80;68.20
47716;BME280;33476;50.984;3.538;2023-04-24T00:07:22;100257.75;;;12.75;68.25
47716;BME280;33476;50.984;3.538;2023-04-24T00:09:47;100256.69;;;12.78;67.86
47716;BME280;33476;50.984;3.538;2023-04-24T00:12:12;100256.59;;;12.79;68.03
47716;BME280;33476;50.984;3.538;2023-04-24T00:14:38;100263.50;;;12.80;67.71
47716;BME280;33476;50.984;3.538;2023-04-24T00:17:03;100264.34;;;12.81;67.58
47716;BME280;33476;50.984;3.538;2023-04-24T00:19:29;100260.06;;;12.80;67.95
47716;BME280;33476;50.984;3.538;2023-04-24T00:21:55;100263.72;;;12.77;67.78
47716;BME280;33476;50.984;3.538;2023-04-24T00:24:20;100259.31;;;12.78;67.96
47716;BME280;33476;50.984;3.538;2023-04-24T00:26:46;100260.06;;;12.80;67.85
47716;BME280;33476;50.984;3.538;2023-04-24T00:29:11;100263.50;;;12.80;67.58
47716;BME280;33476;50.984;3.538;2023-04-24T00:31:37;100265.19;;;12.81;67.64
47716;BME280;33476;50.984;3.538;2023-04-24T00:34:03;100263.72;;;12.77;67.62
47716;BME280;33476;50.984;3.538;2023-04-24T00:36:30;100264.34;;;12.68;67.71
47716;BME280;33476;50.984;3.538;2023-04-24T00:38:56;100268.19;;;12.62;67.89
47716;BME280;33476;50.984;3.538;2023-04-24T00:41:22;100267.94;;;12.53;68.04
47716;BME280;33476;50.984;3.538;2023-04-24T00:43:49;100264.66;;;12.49;67.83
47716;BME280;33476;50.984;3.538;2023-04-24T00:46:16;100267.50;;;12.46;68.13
47716;BME280;33476;50.984;3.538;2023-04-24T00:48:41;100264.03;;;12.46;68.15
47716;BME280;33476;50.984;3.538;2023-04-24T00:51:07;100266.75;;;12.44;68.25
47716;BME280;33476;50.984;3.538;2023-04-24T00:53:33;100258.34;;;12.39;68.04
47716;BME280;33476;50.984;3.538;2023-04-24T00:55:59;100259.50;;;12.35;67.63
47716;BME280;33476;50.984;3.538;2023-04-24T00:58:25;100263.78;;;12.36;67.88
47716;BME280;33476;50.984;3.538;2023-04-24T01:00:52;100271.53;;;12.37;67.61
47716;BME280;33476;50.984;3.538;2023-04-24T01:03:20;100274.78;;;12.41;67.58
47716;BME280;33476;50.984;3.538;2023-04-24T01:05:48;100274.72;;;12.43;67.45
47716;BME280;33476;50.984;3.538;2023-04-24T01:08:14;100269.47;;;12.43;67.52
47716;BME280;33476;50.984;3.538;2023-04-24T01:10:41;100270.31;;;12.43;67.27
47716;BME280;33476;50.984;3.538;2023-04-24T01:13:10;100275.22;;;12.35;67.51
47716;BME280;33476;50.984;3.538;2023-04-24T01:15:35;100273.53;;;12.34;67.50
47716;BME280;33476;50.984;3.538;2023-04-24T01:18:01;100268.69;;;12.28;67.57
47716;BME280;33476;50.984;3.538;2023-04-24T01:20:26;100261.09;;;12.23;68.03
47716;BME280;33476;50.984;3.538;2023-04-24T01:22:53;100264.75;;;12.21;68.35
47716;BME280;33476;50.984;3.538;2023-04-24T01:25:20;100274.19;;;12.23;68.17
47716;BME280;33476;50.984;3.538;2023-04-24T01:27:45;100269.16;;;12.20;68.42
47716;BME280;33476;50.984;3.538;2023-04-24T01:30:11;100272.00;;;12.17;68.45
47716;BME280;33476;50.984;3.538;2023-04-24T01:32:37;100277.22;;;12.17;68.70
47716;BME280;33476;50.984;3.538;2023-04-24T01:35:06;100267.47;;;12.19;68.81
47716;BME280;33476;50.984;3.538;2023-04-24T01:37:32;100277.97;;;12.19;68.77
47716;BME280;33476;50.984;3.538;2023-04-24T01:39:58;100280.69;;;12.18;68.77
47716;BME280;33476;50.984;3.538;2023-04-24T01:42:23;100273.47;;;12.21;68.72
47716;BME280;33476;50.984;3.538;2023-04-24T01:44:49;100275.25;;;12.21;68.81
47716;BME280;33476;50.984;3.538;2023-04-24T01:47:16;100279.63;;;12.20;68.68
47716;BME280;33476;50.984;3.538;2023-04-24T01:49:42;100273.56;;;12.20;68.80
47716;BME280;33476;50.984;3.538;2023-04-24T01:52:07;100283.94;;;12.21;68.90
47716;BME280;33476;50.984;3.538;2023-04-24T01:54:33;100282.16;;;12.22;69.14
47716;BME280;33476;50.984;3.538;2023-04-24T01:56:59;100276.75;;;12.25;68.92
47716;BME280;33476;50.984;3.538;2023-04-24T01:59:27;100288.97;;;12.24;68.86
47716;BME280;33476;50.984;3.538;2023-04-24T02:01:53;100276.75;;;12.25;68.86
47716;BME280;33476;50.984;3.538;2023-04-24T02:04:18;100289.06;;;12.23;69.10
47716;BME280;33476;50.984;3.538;2023-04-24T02:06:43;100277.22;;;12.17;69.42
47716;BME280;33476;50.984;3.538;2023-04-24T02:09:09;100294.03;;;12.13;69.65
47716;BME280;33476;50.984;3.538;2023-04-24T02:11:36;100285.00;;;12.04;70.13
47716;BME280;33476;50.984;3.538;2023-04-24T02:14:01;100292.84;;;12.04;70.09
47716;BME280;33476;50.984;3.538;2023-04-24T02:16:28;100283.09;;;12.06;70.17
47716;BME280;33476;50.984;3.538;2023-04-24T02:18:58;100290.69;;;12.11;70.00
47716;BME280;33476;50.984;3.538;2023-04-24T02:21:23;100310.59;;;12.14;70.00
47716;BME280;33476;50.984;3.538;2023-04-24T02:23:48;100309.19;;;12.08;70.44
47716;BME280;33476;50.984;3.538;2023-04-24T02:26:14;100318.19;;;12.04;70.47
47716;BME280;33476;50.984;3.538;2023-04-24T02:28:40;100312.47;;;11.97;71.30
47716;BME280;33476;50.984;3.538;2023-04-24T02:31:05;100321.00;;;12.01;71.13
47716;BME280;33476;50.984;3.538;2023-04-24T02:33:31;100312.66;;;12.08;70.70
47716;BME280;33476;50.984;3.538;2023-04-24T02:35:57;100323.56;;;12.15;70.86
47716;BME280;33476;50.984;3.538;2023-04-24T02:38:22;100325.19;;;12.18;70.83
47716;BME280;33476;50.984;3.538;2023-04-24T02:40:47;100330.13;;;12.22;70.72
47716;BME280;33476;50.984;3.538;2023-04-24T02:43:13;100331.53;;;12.28;70.47
47716;BME280;33476;50.984;3.538;2023-04-24T02:45:38;100325.81;;;12.35;69.95
47716;BME280;33476;50.984;3.538;2023-04-24T02:48:04;100336.06;;;12.38;69.83
47716;BME280;33476;50.984;3.538;2023-04-24T02:50:29;100337.75;;;12.40;70.00
47716;BME280;33476;50.984;3.538;2023-04-24T02:52:55;100342.88;;;12.41;69.98
47716;BME280;33476;50.984;3.538;2023-04-24T02:55:20;100346.38;;;12.42;69.92
47716;BME280;33476;50.984;3.538;2023-04-24T02:57:45;100355.91;;;12.43;69.97
47716;BME280;33476;50.984;3.538;2023-04-24T03:00:11;100347.94;;;12.44;69.70
47716;BME280;33476;50.984;3.538;2023-04-24T03:02:37;100355.81;;;12.44;69.78
47716;BME280;33476;50.984;3.538;2023-04-24T03:05:02;100363.56;;;12.46;69.69
47716;BME280;33476;50.984;3.538;2023-04-24T03:07:29;100363.47;;;12.47;69.69
47716;BME280;33476;50.984;3.538;2023-04-24T03:09:56;100366.09;;;12.47;69.68
47716;BME280;33476;50.984;3.538;2023-04-24T03:12:23;100367.03;;;12.46;69.97
47716;BME280;33476;50.984;3.538;2023-04-24T03:14:49;100377.88;;;12.40;69.75
47716;BME280;33476;50.984;3.538;2023-04-24T03:17:14;100379.75;;;12.38;70.15
47716;BME280;33476;50.984;3.538;2023-04-24T03:19:40;100385.00;;;12.38;70.02
47716;BME280;33476;50.984;3.538;2023-04-24T03:22:05;100388.66;;;12.35;70.21
47716;BME280;33476;50.984;3.538;2023-04-24T03:24:31;100392.50;;;12.30;70.14
47716;BME280;33476;50.984;3.538;2023-04-24T03:26:57;100407.25;;;12.31;69.94
47716;BME280;33476;50.984;3.538;2023-04-24T03:29:22;100403.91;;;12.29;70.13
47716;BME280;33476;50.984;3.538;2023-04-24T03:31:48;100402.84;;;12.31;69.93
47716;BME280;33476;50.984;3.538;2023-04-24T03:34:13;100417.84;;;12.29;69.82
47716;BME280;33476;50.984;3.538;2023-04-24T03:36:38;100424.59;;;12.33;69.62
47716;BME280;33476;50.984;3.538;2023-04-24T03:39:04;100422.03;;;12.32;69.60
47716;BME280;33476;50.984;3.538;2023-04-24T03:41:29;100431.50;;;12.34;69.36
47716;BME280;33476;50.984;3.538;2023-04-24T03:43:55;100427.38;;;12.30;69.41
47716;BME280;33476;50.984;3.538;2023-04-24T03:46:21;100424.94;;;12.27;69.70
47716;BME280;33476;50.984;3.538;2023-04-24T03:48:46;100433.75;;;12.26;69.28
47716;BME280;33476;50.984;3.538;2023-04-24T03:51:12;100432.97;;;12.24;69.33
47716;BME280;33476;50.984;3.538;2023-04-24T03:53:37;100435.69;;;12.23;69.74
47716;BME280;33476;50.984;3.538;2023-04-24T03:56:03;100443.53;;;12.23;69.25
47716;BME280;33476;50.984;3.538;2023-04-24T03:58:28;100440.94;;;12.23;68.95
47716;BME280;33476;50.984;3.538;2023-04-24T04:00:53;100448.78;;;12.23;68.92
47716;BME280;33476;50.984;3.538;2023-04-24T04:03:19;100447.84;;;12.24;68.67
47716;BME280;33476;50.984;3.538;2023-04-24T04:05:44;100453.19;;;12.22;68.85
47716;BME280;33476;50.984;3.538;2023-04-24T04:08:10;100456.84;;;12.20;68.94
47716;BME280;33476;50.984;3.538;2023-04-24T04:10:35;100466.56;;;12.18;68.77
47716;BME280;33476;50.984;3.538;2023-04-24T04:13:01;100466.56;;;12.18;68.76
47716;BME280;33476;50.984;3.538;2023-04-24T04:15:26;100473.56;;;12.17;68.80
47716;BME280;33476;50.984;3.538;2023-04-24T04:17:52;100479.66;;;12.18;68.61
47716;BME280;33476;50.984;3.538;2023-04-24T04:20:17;100487.56;;;12.16;68.61
47716;BME280;33476;50.984;3.538;2023-04-24T04:22:42;100489.44;;;12.14;68.54
47716;BME280;33476;50.984;3.538;2023-04-24T04:25:08;100494.78;;;12.13;68.68
47716;BME280;33476;50.984;3.538;2023-04-24T04:27:34;100492.41;;;12.08;68.57
47716;BME280;33476;50.984;3.538;2023-04-24T04:29:59;100492.63;;;12.05;68.69
47716;BME280;33476;50.984;3.538;2023-04-24T04:32:30;100501.22;;;12.07;68.60
47716;BME280;33476;50.984;3.538;2023-04-24T04:34:55;100506.44;;;12.07;68.36
47716;BME280;33476;50.984;3.538;2023-04-24T04:37:21;100513.47;;;12.06;68.17
47716;BME280;33476;50.984;3.538;2023-04-24T04:39:46;100511.97;;;12.02;68.33
47716;BME280;33476;50.984;3.538;2023-04-24T04:42:12;100519.91;;;12.01;68.46
47716;BME280;33476;50.984;3.538;2023-04-24T04:44:38;100523.47;;;12.00;68.12
47716;BME280;33476;50.984;3.538;2023-04-24T04:47:04;100528.78;;;11.98;68.33
47716;BME280;33476;50.984;3.538;2023-04-24T04:49:31;100533.06;;;11.99;67.90
47716;BME280;33476;50.984;3.538;2023-04-24T04:51:57;100529.72;;;11.97;68.11
47716;BME280;33476;50.984;3.538;2023-04-24T04:54:22;100540.91;;;11.99;68.02
47716;BME280;33476;50.984;3.538;2023-04-24T04:56:50;100536.72;;;11.97;67.87
47716;BME280;33476;50.984;3.538;2023-04-24T04:59:15;100544.41;;;12.00;67.97
47716;BME280;33476;50.984;3.538;2023-04-24T05:01:40;100549.56;;;12.01;67.66
47716;BME280;33476;50.984;3.538;2023-04-24T05:04:06;100553.44;;;11.94;67.53
47716;BME280;33476;50.984;3.538;2023-04-24T05:06:31;100559.97;;;11.87;67.66
47716;BME280;33476;50.984;3.538;2023-04-24T05:08:57;100566.03;;;11.88;67.74
47716;BME280;33476;50.984;3.538;2023-04-24T05:11:22;100573.25;;;11.84;67.76
47716;BME280;33476;50.984;3.538;2023-04-24T05:13:49;100575.84;;;11.84;67.79
47716;BME280;33476;50.984;3.538;2023-04-24T05:16:14;100582.78;;;11.85;67.90
47716;BME280;33476;50.984;3.538;2023-04-24T05:18:40;100589.59;;;11.88;67.65
47716;BME280;33476;50.984;3.538;2023-04-24T05:21:05;100597.34;;;11.89;67.50
47716;BME280;33476;50.984;3.538;2023-04-24T05:23:31;100594.81;;;11.88;67.76
47716;BME280;33476;50.984;3.538;2023-04-24T05:25:56;100601.94;;;11.86;67.91
47716;BME280;33476;50.984;3.538;2023-04-24T05:28:22;100609.69;;;11.87;67.65
47716;BME280;33476;50.984;3.538;2023-04-24T05:30:47;100612.31;;;11.87;67.99
47716;BME280;33476;50.984;3.538;2023-04-24T05:33:13;100614.16;;;11.85;67.86
47716;BME280;33476;50.984;3.538;2023-04-24T05:35:40;100628.94;;;11.86;67.82
47716;BME280;33476;50.984;3.538;2023-04-24T05:38:11;100630.53;;;11.89;68.16
47716;BME280;33476;50.984;3.538;2023-04-24T05:40:37;100636.47;;;11.92;68.03
47716;BME280;33476;50.984;3.538;2023-04-24T05:43:02;100636.09;;;11.98;67.82
47716;BME280;33476;50.984;3.538;2023-04-24T05:45:28;100639.47;;;12.00;67.80
47716;BME280;33476;50.984;3.538;2023-04-24T05:47:53;100637.84;;;11.98;67.92
47716;BME280;33476;50.984;3.538;2023-04-24T05:50:18;100646.56;;;11.98;68.44
47716;BME280;33476;50.984;3.538;2023-04-24T05:52:44;100636.38;;;11.94;68.36
47716;BME280;33476;50.984;3.538;2023-04-24T05:55:09;100653.16;;;11.90;68.45
47716;BME280;33476;50.984;3.538;2023-04-24T05:57:35;100653.84;;;11.93;68.51
47716;BME280;33476;50.984;3.538;2023-04-24T06:00:00;100671.13;;;11.96;68.41
47716;BME280;33476;50.984;3.538;2023-04-24T06:02:25;100673.75;;;11.96;68.63
47716;BME280;33476;50.984;3.538;2023-04-24T06:04:52;100672.91;;;11.95;68.49
47716;BME280;33476;50.984;3.538;2023-04-24T06:07:18;100681.50;;;11.97;68.36
47716;BME280;33476;50.984;3.538;2023-04-24T06:09:43;100683.19;;;11.98;68.38
47716;BME280;33476;50.984;3.538;2023-04-24T06:12:09;100684.88;;;11.99;68.44
47716;BME280;33476;50.984;3.538;2023-04-24T06:14:34;100688.19;;;12.03;68.45
47716;BME280;33476;50.984;3.538;2023-04-24T06:17:00;100695.84;;;12.06;68.01
47716;BME280;33476;50.984;3.538;2023-04-24T06:19:25;100694.94;;;12.07;68.10
47716;BME280;33476;50.984;3.538;2023-04-24T06:21:50;100700.09;;;12.08;67.98
47716;BME280;33476;50.984;3.538;2023-04-24T06:24:16;100695.44;;;12.14;68.10
47716;BME280;33476;50.984;3.538;2023-04-24T06:26:41;100707.44;;;12.18;68.12
47716;BME280;33476;50.984;3.538;2023-04-24T06:29:07;100712.50;;;12.21;67.79
47716;BME280;33476;50.984;3.538;2023-04-24T06:31:32;100729.13;;;12.20;67.85
47716;BME280;33476;50.984;3.538;2023-04-24T06:34:02;100730.91;;;12.19;67.85
47716;BME280;33476;50.984;3.538;2023-04-24T06:36:28;100741.28;;;12.21;67.65
47716;BME280;33476;50.984;3.538;2023-04-24T06:38:53;100740.97;;;12.27;67.43
47716;BME280;33476;50.984;3.538;2023-04-24T06:41:19;100747.78;;;12.29;67.52
47716;BME280;33476;50.984;3.538;2023-04-24T06:43:44;100758.06;;;12.32;67.20
47716;BME280;33476;50.984;3.538;2023-04-24T06:46:10;100747.97;;;12.26;67.62
47716;BME280;33476;50.984;3.538;2023-04-24T06:48:35;100751.69;;;12.22;68.08
47716;BME280;33476;50.984;3.538;2023-04-24T06:51:01;100757.94;;;12.20;68.22
47716;BME280;33476;50.984;3.538;2023-04-24T06:53:26;100767.72;;;12.16;68.18
47716;BME280;33476;50.984;3.538;2023-04-24T06:55:52;100763.41;;;12.15;68.47
47716;BME280;33476;50.984;3.538;2023-04-24T06:58:18;100770.34;;;12.16;68.14
47716;BME280;33476;50.984;3.538;2023-04-24T07:00:43;100777.28;;;12.17;68.35
47716;BME280;33476;50.984;3.538;2023-04-24T07:03:08;100778.69;;;12.23;67.98
47716;BME280;33476;50.984;3.538;2023-04-24T07:05:35;100768.41;;;12.20;67.89
47716;BME280;33476;50.984;3.538;2023-04-24T07:08:00;100783.28;;;12.19;67.95
47716;BME280;33476;50.984;3.538;2023-04-24T07:10:26;100792.72;;;12.22;68.00
47716;BME280;33476;50.984;3.538;2023-04-24T07:12:54;100782.25;;;12.22;68.02
47716;BME280;33476;50.984;3.538;2023-04-24T07:15:19;100792.22;;;12.15;67.86
47716;BME280;33476;50.984;3.538;2023-04-24T07:17:45;100789.44;;;12.18;67.75
47716;BME280;33476;50.984;3.538;2023-04-24T07:20:11;100803.19;;;12.22;67.85
47716;BME280;33476;50.984;3.538;2023-04-24T07:22:40;100807.50;;;12.23;67.55
47716;BME280;33476;50.984;3.538;2023-04-24T07:25:06;100800.16;;;12.29;67.48
47716;BME280;33476;50.984;3.538;2023-04-24T07:27:32;100816.16;;;12.25;67.05
47716;BME280;33476;50.984;3.538;2023-04-24T07:29:58;100814.53;;;12.22;67.12
47716;BME280;33476;50.984;3.538;2023-04-24T07:32:23;100823.31;;;12.21;66.89
47716;BME280;33476;50.984;3.538;2023-04-24T07:34:48;100821.28;;;12.26;67.06
47716;BME280;33476;50.984;3.538;2023-04-24T07:37:14;100823.13;;;12.40;66.73
47716;BME280;33476;50.984;3.538;2023-04-24T07:39:39;100830.31;;;12.52;66.47
47716;BME280;33476;50.984;3.538;2023-04-24T07:42:05;100820.16;;;12.62;66.28
47716;BME280;33476;50.984;3.538;2023-04-24T07:44:30;100829.03;;;12.75;65.77
47716;BME280;33476;50.984;3.538;2023-04-24T07:46:56;100823.00;;;12.89;66.00
47716;BME280;33476;50.984;3.538;2023-04-24T07:49:21;100820.63;;;13.00;65.75
47716;BME280;33476;50.984;3.538;2023-04-24T07:51:46;100833.59;;;13.17;65.36
47716;BME280;33476;50.984;3.538;2023-04-24T07:54:12;100831.28;;;13.27;64.73
47716;BME280;33476;50.984;3.538;2023-04-24T07:56:37;100832.03;;;13.29;64.69
47716;BME280;33476;50.984;3.538;2023-04-24T07:59:04;100826.53;;;13.34;64.16
47716;BME280;33476;50.984;3.538;2023-04-24T08:01:30;100839.47;;;13.37;64.12
47716;BME280;33476;50.984;3.538;2023-04-24T08:03:55;100844.81;;;13.35;63.93
47716;BME280;33476;50.984;3.538;2023-04-24T08:06:21;100837.88;;;13.34;64.04
47716;BME280;33476;50.984;3.538;2023-04-24T08:08:46;100843.22;;;13.33;63.32
47716;BME280;33476;50.984;3.538;2023-04-24T08:11:11;100858.66;;;13.37;63.63
47716;BME280;33476;50.984;3.538;2023-04-24T08:13:37;100860.94;;;13.43;63.15
47716;BME280;33476;50.984;3.538;2023-04-24T08:16:02;100869.38;;;13.48;63.30
47716;BME280;33476;50.984;3.538;2023-04-24T08:18:27;100881.47;;;13.51;62.98
47716;BME280;33476;50.984;3.538;2023-04-24T08:20:53;100875.56;;;13.47;62.72
47716;BME280;33476;50.984;3.538;2023-04-24T08:23:18;100885.97;;;13.49;62.30
47716;BME280;33476;50.984;3.538;2023-04-24T08:25:44;100875.47;;;13.49;62.14
47716;BME280;33476;50.984;3.538;2023-04-24T08:28:09;100889.06;;;13.56;61.44
47716;BME280;33476;50.984;3.538;2023-04-24T08:30:36;100887.97;;;13.60;61.55
47716;BME280;33476;50.984;3.538;2023-04-24T08:33:02;100884.78;;;13.69;61.02
47716;BME280;33476;50.984;3.538;2023-04-24T08:35:27;100892.00;;;13.80;60.56
47716;BME280;33476;50.984;3.538;2023-04-24T08:37:53;100894.38;;;13.84;60.02
47716;BME280;33476;50.984;3.538;2023-04-24T08:40:25;100905.63;;;13.86;60.02
47716;BME280;33476;50.984;3.538;2023-04-24T08:42:54;100909.94;;;13.87;59.58
47716;BME280;33476;50.984;3.538;2023-04-24T08:45:21;100908.50;;;13.82;59.90
47716;BME280;33476;50.984;3.538;2023-04-24T08:47:47;100906.56;;;13.85;59.88
47716;BME280;33476;50.984;3.538;2023-04-24T08:50:14;100905.41;;;13.89;59.83
47716;BME280;33476;50.984;3.538;2023-04-24T08:52:41;100905.16;;;13.94;59.50
47716;BME280;33476;50.984;3.538;2023-04-24T08:55:07;100915.66;;;13.94;59.02
47716;BME280;33476;50.984;3.538;2023-04-24T08:57:33;100923.78;;;13.89;58.85
47716;BME280;33476;50.984;3.538;2023-04-24T08:59:59;100921.72;;;13.80;58.83
47716;BME280;33476;50.984;3.538;2023-04-24T09:02:25;100920.34;;;13.74;58.87
47716;BME280;33476;50.984;3.538;2023-04-24T09:04:52;100916.19;;;13.70;58.81
47716;BME280;33476;50.984;3.538;2023-04-24T09:07:19;100925.25;;;13.65;58.53
47716;BME280;33476;50.984;3.538;2023-04-24T09:09:45;100932.22;;;13.66;58.71
47716;BME280;33476;50.984;3.538;2023-04-24T09:12:11;100925.25;;;13.65;58.44
47716;BME280;33476;50.984;3.538;2023-04-24T09:14:36;100926.13;;;13.65;58.33
47716;BME280;33476;50.984;3.538;2023-04-24T09:17:07;100927.28;;;13.75;58.73
47716;BME280;33476;50.984;3.538;2023-04-24T09:19:33;100935.69;;;13.81;58.09
47716;BME280;33476;50.984;3.538;2023-04-24T09:21:58;100935.69;;;13.81;58.08
47716;BME280;33476;50.984;3.538;2023-04-24T09:24:23;100934.94;;;13.78;57.84
47716;BME280;33476;50.984;3.538;2023-04-24T09:26:56;100937.19;;;13.70;57.41
47716;BME280;33476;50.984;3.538;2023-04-24T09:29:26;100937.94;;;13.72;57.44
47716;BME280;33476;50.984;3.538;2023-04-24T09:31:52;100944.03;;;13.73;57.00
47716;BME280;33476;50.984;3.538;2023-04-24T09:34:25;100948.28;;;13.75;56.73
47716;BME280;33476;50.984;3.538;2023-04-24T09:36:51;100953.06;;;13.83;57.07
47716;BME280;33476;50.984;3.538;2023-04-24T09:39:18;100957.53;;;13.81;57.21
47716;BME280;33476;50.984;3.538;2023-04-24T09:41:52;100957.72;;;13.78;56.76
47716;BME280;33476;50.984;3.538;2023-04-24T09:44:18;100961.09;;;13.80;57.06
47716;BME280;33476;50.984;3.538;2023-04-24T09:46:55;100967.50;;;13.76;56.99
47716;BME280;33476;50.984;3.538;2023-04-24T09:49:27;100965.91;;;13.88;56.93
47716;BME280;33476;50.984;3.538;2023-04-24T09:52:07;100962.56;;;14.00;56.75
47716;BME280;33476;50.984;3.538;2023-04-24T09:54:32;100962.19;;;14.20;56.56
47716;BME280;33476;50.984;3.538;2023-04-24T09:56:58;100961.94;;;14.25;55.70
47716;BME280;33476;50.984;3.538;2023-04-24T09:59:25;100965.09;;;14.30;55.75
47716;BME280;33476;50.984;3.538;2023-04-24T10:01:50;100975.53;;;14.31;55.92
47716;BME280;33476;50.984;3.538;2023-04-24T10:04:24;100982.75;;;14.28;56.01
47716;BME280;33476;50.984;3.538;2023-04-24T10:06:53;100980.03;;;14.29;55.43
47716;BME280;33476;50.984;3.538;2023-04-24T10:09:21;100987.34;;;14.24;55.77
47716;BME280;33476;50.984;3.538;2023-04-24T10:11:48;100986.69;;;14.21;55.65
47716;BME280;33476;50.984;3.538;2023-04-24T10:14:16;100991.19;;;14.19;55.84
47716;BME280;33476;50.984;3.538;2023-04-24T10:16:42;100996.34;;;14.20;55.87
47716;BME280;33476;50.984;3.538;2023-04-24T10:19:08;100995.25;;;14.24;55.85
47716;BME280;33476;50.984;3.538;2023-04-24T10:21:34;100999.72;;;14.22;55.68
47716;BME280;33476;50.984;3.538;2023-04-24T10:24:00;101001.50;;;14.22;55.62
47716;BME280;33476;50.984;3.538;2023-04-24T10:26:29;101005.81;;;14.23;55.83
47716;BME280;33476;50.984;3.538;2023-04-24T10:28:57;101002.81;;;14.29;55.81
47716;BME280;33476;50.984;3.538;2023-04-24T10:31:24;101008.81;;;14.31;55.86
47716;BME280;33476;50.984;3.538;2023-04-24T10:33:51;101004.59;;;14.28;55.72
47716;BME280;33476;50.984;3.538;2023-04-24T10:36:17;101009.88;;;14.28;55.99
47716;BME280;33476;50.984;3.538;2023-04-24T10:38:45;101012.31;;;14.31;55.86
47716;BME280;33476;50.984;3.538;2023-04-24T10:41:12;101013.91;;;14.34;55.24
47716;BME280;33476;50.984;3.538;2023-04-24T10:43:44;101015.50;;;14.37;55.47
47716;BME280;33476;50.984;3.538;2023-04-24T10:46:10;101018.72;;;14.42;55.40
47716;BME280;33476;50.984;3.538;2023-04-24T10:48:36;101026.31;;;14.46;55.10
47716;BME280;33476;50.984;3.538;2023-04-24T10:51:11;101021.25;;;14.43;54.62
47716;BME280;33476;50.984;3.538;2023-04-24T10:53:36;101027.66;;;14.53;54.63
47716;BME280;33476;50.984;3.538;2023-04-24T10:56:04;101020.34;;;14.58;54.17
47716;BME280;33476;50.984;3.538;2023-04-24T10:58:42;101022.28;;;14.55;53.86
47716;BME280;33476;50.984;3.538;2023-04-24T11:01:29;101030.84;;;14.58;53.83
47716;BME280;33476;50.984;3.538;2023-04-24T11:04:02;101021.66;;;14.66;53.87
47716;BME280;33476;50.984;3.538;2023-04-24T11:06:32;101028.03;;;14.76;53.21
47716;BME280;33476;50.984;3.538;2023-04-24T11:09:03;101039.09;;;14.81;53.64
47716;BME280;33476;50.984;3.538;2023-04-24T11:11:30;101035.97;;;14.88;53.25
47716;BME280;33476;50.984;3.538;2023-04-24T11:16:53;101038.69;;;15.15;53.28
47716;BME280;33476;50.984;3.538;2023-04-24T11:19:23;101046.81;;;15.39;53.16
47716;BME280;33476;50.984;3.538;2023-04-24T11:27:18;101038.19;;;15.23;52.38
47716;BME280;33476;50.984;3.538;2023-04-24T11:35:00;101049.44;;;15.39;51.99
47716;BME280;33476;50.984;3.538;2023-04-24T11:37:28;101050.91;;;15.43;51.69
47716;BME280;33476;50.984;3.538;2023-04-24T11:39:54;101053.66;;;15.42;51.44
47716;BME280;33476;50.984;3.538;2023-04-24T11:42:22;101056.81;;;15.47;51.50
47716;BME280;33476;50.984;3.538;2023-04-24T11:44:49;101049.19;;;15.57;51.26
47716;BME280;33476;50.984;3.538;2023-04-24T11:47:15;101053.28;;;15.75;51.30
47716;BME280;33476;50.984;3.538;2023-04-24T11:49:43;101062.59;;;15.93;51.04
47716;BME280;33476;50.984;3.538;2023-04-24T11:52:09;101051.09;;;15.94;50.66
47716;BME280;33476;50.984;3.538;2023-04-24T11:54:36;101055.53;;;15.94;50.50
47716;BME280;33476;50.984;3.538;2023-04-24T11:57:04;101057.63;;;15.89;50.25
47716;BME280;33476;50.984;3.538;2023-04-24T11:59:35;101062.91;;;15.89;50.38
47716;BME280;33476;50.984;3.538;2023-04-24T12:02:01;101061.00;;;15.91;50.00
47716;BME280;33476;50.984;3.538;2023-04-24T12:04:26;101067.75;;;15.95;50.09
47716;BME280;33476;50.984;3.538;2023-04-24T12:07:04;101066.63;;;15.99;50.04
47716;BME280;33476;50.984;3.538;2023-04-24T12:09:44;101073.25;;;16.05;50.12
47716;BME280;33476;50.984;3.538;2023-04-24T12:12:11;101074.41;;;16.13;49.59
47716;BME280;33476;50.984;3.538;2023-04-24T12:14:47;101076.22;;;16.13;49.38
47716;BME280;33476;50.984;3.538;2023-04-24T12:17:13;101069.38;;;16.10;49.26
47716;BME280;33476;50.984;3.538;2023-04-24T12:19:45;101068.09;;;16.03;49.13
47716;BME280;33476;50.984;3.538;2023-04-24T12:22:11;101065.25;;;16.06;49.66
47716;BME280;33476;50.984;3.538;2023-04-24T12:24:58;101067.91;;;16.06;49.18
47716;BME280;33476;50.984;3.538;2023-04-24T12:27:24;101071.50;;;16.18;49.10
47716;BME280;33476;50.984;3.538;2023-04-24T12:29:56;101076.13;;;16.27;49.22
47716;BME280;33476;50.984;3.538;2023-04-24T12:32:21;101070.97;;;16.38;48.45
47716;BME280;33476;50.984;3.538;2023-04-24T12:34:47;101072.47;;;16.42;48.15
47716;BME280;33476;50.984;3.538;2023-04-24T12:37:12;101075.00;;;16.56;48.67
47716;BME280;33476;50.984;3.538;2023-04-24T12:39:38;101073.31;;;16.68;47.83
47716;BME280;33476;50.984;3.538;2023-04-24T12:42:03;101070.38;;;16.73;47.71
47716;BME280;33476;50.984;3.538;2023-04-24T12:44:33;101079.34;;;16.70;47.64
47716;BME280;33476;50.984;3.538;2023-04-24T12:46:59;101060.34;;;16.78;48.20
47716;BME280;33476;50.984;3.538;2023-04-24T12:49:25;101080.28;;;16.69;47.17
47716;BME280;33476;50.984;3.538;2023-04-24T12:51:50;101076.25;;;16.51;46.71
47716;BME280;33476;50.984;3.538;2023-04-24T12:54:16;101076.47;;;16.48;47.02
47716;BME280;33476;50.984;3.538;2023-04-24T12:56:41;101064.88;;;16.50;46.58
47716;BME280;33476;50.984;3.538;2023-04-24T12:59:07;101068.06;;;16.55;46.21